createdAt,value
2018-08-23T00:00:10.634Z,22.41
2018-08-23T00:01:10.580Z,22.48
2018-08-23T00:02:10.514Z,22.43
2018-08-23T00:03:10.516Z,22.31
2018-08-23T00:04:10.403Z,22.40
2018-08-23T00:05:10.342Z,22.37
2018-08-23T00:06:10.305Z,22.38
2018-08-23T00:07:10.232Z,22.31
2018-08-23T00:08:10.174Z,22.34
2018-08-23T00:09:10.114Z,22.34
2018-08-23T00:10:10.059Z,22.37
2018-08-23T00:11:10.004Z,22.38
2018-08-23T00:12:09.943Z,22.38
2018-08-23T00:13:09.888Z,22.38
2018-08-23T00:14:09.825Z,22.34
2018-08-23T00:15:09.770Z,22.34
2018-08-23T00:16:09.725Z,22.27
2018-08-23T00:17:09.651Z,22.21
2018-08-23T00:18:09.598Z,22.30
2018-08-23T00:19:09.549Z,22.28
2018-08-23T00:20:09.482Z,22.23
2018-08-23T00:21:09.421Z,22.38
2018-08-23T00:22:09.367Z,22.28
2018-08-23T00:23:09.306Z,22.28
2018-08-23T00:24:09.257Z,22.31
2018-08-23T00:25:09.193Z,22.31
2018-08-23T00:26:09.141Z,22.30
2018-08-23T00:27:09.107Z,22.25
2018-08-23T00:28:09.020Z,22.28
2018-08-23T00:29:08.963Z,22.23
2018-08-23T00:30:08.910Z,22.16
2018-08-23T00:31:08.847Z,22.18
2018-08-23T00:32:08.793Z,22.19
2018-08-23T00:33:08.734Z,22.09
2018-08-23T00:34:08.677Z,22.06
2018-08-23T00:35:08.617Z,22.04
2018-08-23T00:36:08.559Z,22.04
2018-08-23T00:37:08.497Z,22.15
2018-08-23T00:38:08.447Z,22.06
2018-08-23T00:39:08.390Z,22.13
2018-08-23T00:40:08.330Z,22.00
2018-08-23T00:41:08.269Z,22.06
2018-08-23T00:42:08.213Z,22.06
2018-08-23T00:43:08.160Z,22.01
2018-08-23T00:44:08.097Z,21.91
2018-08-23T00:45:08.045Z,22.01
2018-08-23T00:46:07.990Z,22.00
2018-08-23T00:47:07.926Z,21.98
2018-08-23T00:48:07.868Z,21.93
2018-08-23T00:49:07.808Z,21.93
2018-08-23T00:50:07.755Z,21.96
2018-08-23T00:51:07.693Z,22.00
2018-08-23T00:52:07.636Z,21.98
2018-08-23T00:53:07.578Z,21.96
2018-08-23T00:54:07.524Z,21.88
2018-08-23T00:55:07.464Z,21.94
2018-08-23T00:56:07.409Z,21.90
2018-08-23T00:57:07.350Z,21.88
2018-08-23T00:58:07.290Z,21.91
2018-08-23T00:59:07.251Z,21.91
2018-08-23T01:00:07.173Z,21.97
2018-08-23T01:01:07.115Z,21.98
2018-08-23T01:02:07.054Z,21.97
2018-08-23T01:03:07.016Z,22.00
2018-08-23T01:04:06.940Z,21.98
2018-08-23T01:05:06.885Z,21.90
2018-08-23T01:06:06.825Z,21.96
2018-08-23T01:07:06.768Z,21.97
2018-08-23T01:08:06.712Z,21.98
2018-08-23T01:09:06.654Z,21.98
2018-08-23T01:10:06.595Z,21.98
2018-08-23T01:11:06.543Z,21.98
2018-08-23T01:12:06.478Z,21.98
2018-08-23T01:13:06.423Z,21.96
2018-08-23T01:14:06.375Z,21.98
2018-08-23T01:15:06.306Z,21.98
2018-08-23T01:16:06.251Z,21.98
2018-08-23T01:17:06.328Z,21.93
2018-08-23T01:18:06.130Z,22.04
2018-08-23T01:19:06.077Z,21.94
2018-08-23T01:20:06.016Z,21.96
2018-08-23T01:21:05.974Z,21.97
2018-08-23T01:22:05.902Z,21.98
2018-08-23T01:23:05.840Z,22.00
2018-08-23T01:24:05.797Z,21.98
2018-08-23T01:25:05.726Z,21.93
2018-08-23T01:26:05.670Z,21.93
2018-08-23T01:27:05.611Z,21.94
2018-08-23T01:28:05.561Z,21.90
2018-08-23T01:29:05.498Z,21.90
2018-08-23T01:30:05.438Z,21.84
2018-08-23T01:31:05.377Z,21.84
2018-08-23T01:32:05.323Z,21.78
2018-08-23T01:33:05.264Z,21.81
2018-08-23T01:34:05.207Z,21.77
2018-08-23T01:35:05.155Z,21.73
2018-08-23T01:36:05.116Z,21.78
2018-08-23T01:37:05.030Z,21.67
2018-08-23T01:38:04.975Z,21.71
2018-08-23T01:39:04.916Z,21.66
2018-08-23T01:40:04.859Z,21.73
2018-08-23T01:41:04.799Z,21.67
2018-08-23T01:42:04.767Z,21.73
2018-08-23T01:43:04.683Z,21.59
2018-08-23T01:44:04.625Z,21.62
2018-08-23T01:45:04.577Z,21.63
2018-08-23T01:46:04.509Z,21.51
2018-08-23T01:47:04.452Z,21.51
2018-08-23T01:48:04.398Z,21.47
2018-08-23T01:49:04.338Z,21.44
2018-08-23T01:50:04.273Z,21.37
2018-08-23T01:51:04.223Z,21.25
2018-08-23T01:52:04.164Z,21.37
2018-08-23T01:53:04.104Z,21.28
2018-08-23T01:54:04.051Z,21.30
2018-08-23T01:55:03.995Z,21.26
2018-08-23T01:56:03.930Z,21.37
2018-08-23T01:57:03.870Z,21.28
2018-08-23T01:58:03.811Z,21.23
2018-08-23T01:59:03.754Z,21.26
2018-08-23T02:00:03.716Z,21.23
2018-08-23T02:01:03.637Z,21.26
2018-08-23T02:02:03.583Z,21.20
2018-08-23T02:03:03.531Z,21.20
2018-08-23T02:04:03.464Z,21.14
2018-08-23T02:05:03.406Z,21.16
2018-08-23T02:06:03.346Z,21.23
2018-08-23T02:07:03.292Z,21.20
2018-08-23T02:08:03.230Z,21.16
2018-08-23T02:09:03.171Z,21.13
2018-08-23T02:10:03.126Z,21.19
2018-08-23T02:11:03.060Z,21.19
2018-08-23T02:12:02.996Z,21.18
2018-08-23T02:13:02.938Z,21.18
2018-08-23T02:14:02.887Z,21.16
2018-08-23T02:15:02.825Z,21.10
2018-08-23T02:16:02.760Z,21.13
2018-08-23T02:17:02.706Z,21.10
2018-08-23T02:18:02.651Z,21.13
2018-08-23T02:19:02.590Z,21.04
2018-08-23T02:20:02.535Z,21.05
2018-08-23T02:21:02.475Z,21.11
2018-08-23T02:22:02.414Z,21.10
2018-08-23T02:23:02.356Z,21.08
2018-08-23T02:24:02.303Z,21.08
2018-08-23T02:25:02.261Z,21.07
2018-08-23T02:26:02.183Z,21.11
2018-08-23T02:27:02.129Z,20.93
2018-08-23T02:28:02.080Z,20.93
2018-08-23T02:29:02.010Z,20.98
2018-08-23T02:30:01.963Z,20.90
2018-08-23T02:31:01.895Z,21.04
2018-08-23T02:32:01.833Z,21.05
2018-08-23T02:33:01.782Z,21.05
2018-08-23T02:34:01.716Z,21.11
2018-08-23T02:35:01.685Z,21.14
2018-08-23T02:36:01.622Z,21.14
2018-08-23T02:37:01.543Z,21.08
2018-08-23T02:38:01.507Z,21.08
2018-08-23T02:39:01.426Z,21.11
2018-08-23T02:40:01.368Z,21.04
2018-08-23T02:41:01.313Z,21.03
2018-08-23T02:42:01.251Z,21.03
2018-08-23T02:43:01.214Z,21.04
2018-08-23T02:44:01.135Z,21.04
2018-08-23T02:45:01.074Z,21.04
2018-08-23T02:46:01.019Z,21.07
2018-08-23T02:47:00.960Z,21.08
2018-08-23T02:48:00.902Z,21.00
2018-08-23T02:49:00.841Z,20.97
2018-08-23T02:50:00.783Z,20.82
2018-08-23T02:51:00.726Z,20.88
2018-08-23T02:52:00.671Z,20.86
2018-08-23T02:53:00.609Z,20.85
2018-08-23T02:54:00.553Z,20.80
2018-08-23T02:55:00.496Z,20.90
2018-08-23T02:56:00.435Z,20.80
2018-08-23T02:57:00.380Z,20.89
2018-08-23T02:58:00.319Z,20.85
2018-08-23T02:59:00.264Z,20.80
2018-08-23T03:00:00.203Z,20.88
2018-08-23T03:01:00.144Z,20.83
2018-08-23T03:02:00.089Z,20.82
2018-08-23T03:03:00.027Z,20.83
2018-08-23T03:03:59.976Z,20.79
2018-08-23T03:04:59.916Z,20.77
2018-08-23T03:05:59.856Z,20.75
2018-08-23T03:06:59.791Z,20.74
2018-08-23T03:07:59.738Z,20.68
2018-08-23T03:08:59.676Z,20.79
2018-08-23T03:09:59.619Z,20.75
2018-08-23T03:10:59.560Z,20.74
2018-08-23T03:11:59.503Z,20.73
2018-08-23T03:12:59.445Z,20.74
2018-08-23T03:13:59.443Z,20.74
2018-08-23T03:14:59.330Z,20.75
2018-08-23T03:15:59.267Z,20.74
2018-08-23T03:16:59.210Z,20.82
2018-08-23T03:17:59.149Z,20.74
2018-08-23T03:18:59.110Z,20.75
2018-08-23T03:19:59.034Z,20.85
2018-08-23T03:20:58.982Z,20.77
2018-08-23T03:21:58.922Z,20.85
2018-08-23T03:22:58.856Z,20.92
2018-08-23T03:23:58.800Z,20.83
2018-08-23T03:24:58.743Z,20.82
2018-08-23T03:25:58.685Z,20.85
2018-08-23T03:26:58.632Z,20.83
2018-08-23T03:27:58.568Z,20.82
2018-08-23T03:28:58.509Z,20.82
2018-08-23T03:29:58.456Z,20.85
2018-08-23T03:30:58.406Z,20.92
2018-08-23T03:31:58.340Z,20.80
2018-08-23T03:32:58.274Z,20.93
2018-08-23T03:33:58.219Z,20.80
2018-08-23T03:34:58.164Z,20.89
2018-08-23T03:35:58.102Z,20.86
2018-08-23T03:36:58.041Z,20.80
2018-08-23T03:37:57.984Z,20.89
2018-08-23T03:38:57.926Z,20.90
2018-08-23T03:39:57.876Z,20.97
2018-08-23T03:40:57.820Z,21.00
2018-08-23T03:41:57.748Z,21.01
2018-08-23T03:42:57.694Z,21.00
2018-08-23T03:43:57.632Z,21.13
2018-08-23T03:44:57.580Z,21.07
2018-08-23T03:45:57.518Z,21.07
2018-08-23T03:46:57.460Z,21.05
2018-08-23T03:47:57.399Z,21.08
2018-08-23T03:48:57.344Z,21.07
2018-08-23T03:49:57.281Z,21.10
2018-08-23T03:50:57.224Z,21.07
2018-08-23T03:51:57.169Z,21.08
2018-08-23T03:52:57.107Z,21.08
2018-08-23T03:53:57.050Z,21.04
2018-08-23T03:54:56.990Z,21.10
2018-08-23T03:55:56.934Z,21.13
2018-08-23T03:56:56.872Z,21.11
2018-08-23T03:57:56.822Z,20.97
2018-08-23T03:58:56.781Z,20.95
2018-08-23T03:59:56.699Z,21.00
2018-08-23T04:00:56.667Z,20.93
2018-08-23T04:01:56.581Z,20.90
2018-08-23T04:02:56.530Z,20.83
2018-08-23T04:03:56.466Z,20.92
2018-08-23T04:04:56.408Z,20.85
2018-08-23T04:05:56.347Z,20.82
2018-08-23T04:06:56.299Z,20.90
2018-08-23T04:07:56.236Z,20.82
2018-08-23T04:08:56.174Z,20.82
2018-08-23T04:09:56.115Z,20.83
2018-08-23T04:10:56.056Z,20.85
2018-08-23T04:11:55.997Z,20.85
2018-08-23T04:12:55.946Z,20.88
2018-08-23T04:13:55.881Z,20.89
2018-08-23T04:14:55.824Z,20.88
2018-08-23T04:15:55.766Z,20.85
2018-08-23T04:16:55.704Z,20.80
2018-08-23T04:17:55.647Z,20.80
2018-08-23T04:18:55.586Z,20.82
2018-08-23T04:19:55.566Z,20.83
2018-08-23T04:20:55.479Z,20.86
2018-08-23T04:21:55.415Z,20.83
2018-08-23T04:22:55.406Z,20.89
2018-08-23T04:23:55.343Z,20.86
2018-08-23T04:24:55.274Z,20.86
2018-08-23T04:25:55.179Z,20.80
2018-08-23T04:26:55.129Z,20.82
2018-08-23T04:27:55.067Z,20.82
2018-08-23T04:28:55.007Z,20.88
2018-08-23T04:29:54.946Z,20.88
2018-08-23T04:30:54.889Z,20.93
2018-08-23T04:31:54.830Z,20.97
2018-08-23T04:32:54.770Z,20.98
2018-08-23T04:33:54.713Z,21.04
2018-08-23T04:34:54.654Z,21.13
2018-08-23T04:35:54.607Z,21.07
2018-08-23T04:36:54.537Z,21.13
2018-08-23T04:37:54.481Z,21.05
2018-08-23T04:38:54.424Z,21.05
2018-08-23T04:39:54.360Z,21.10
2018-08-23T04:40:54.303Z,21.03
2018-08-23T04:41:54.249Z,21.19
2018-08-23T04:42:54.183Z,21.18
2018-08-23T04:43:54.132Z,21.19
2018-08-23T04:44:54.067Z,21.14
2018-08-23T04:45:54.015Z,21.14
2018-08-23T04:46:53.963Z,21.22
2018-08-23T04:47:53.933Z,21.25
2018-08-23T04:48:53.851Z,21.26
2018-08-23T04:49:53.778Z,21.22
2018-08-23T04:50:53.726Z,21.18
2018-08-23T04:51:53.667Z,21.23
2018-08-23T04:52:53.609Z,21.20
2018-08-23T04:53:53.559Z,21.26
2018-08-23T04:54:53.522Z,21.35
2018-08-23T04:55:53.430Z,21.28
2018-08-23T04:56:53.371Z,21.34
2018-08-23T04:57:53.316Z,21.29
2018-08-23T04:58:53.285Z,21.30
2018-08-23T04:59:53.199Z,21.35
2018-08-23T05:00:53.141Z,21.37
2018-08-23T05:01:53.084Z,21.30
2018-08-23T05:02:53.023Z,21.29
2018-08-23T05:03:53.017Z,21.30
2018-08-23T05:04:52.901Z,21.32
2018-08-23T05:05:52.845Z,21.30
2018-08-23T05:06:52.786Z,21.30
2018-08-23T05:07:52.736Z,21.25
2018-08-23T05:08:52.672Z,21.26
2018-08-23T05:09:52.615Z,21.32
2018-08-23T05:10:52.559Z,21.28
2018-08-23T05:11:52.502Z,21.26
2018-08-23T05:12:52.443Z,21.16
2018-08-23T05:13:52.390Z,21.26
2018-08-23T05:14:52.320Z,21.25
2018-08-23T05:15:52.263Z,21.23
2018-08-23T05:16:52.228Z,21.20
2018-08-23T05:17:52.144Z,21.25
2018-08-23T05:18:52.085Z,21.18
2018-08-23T05:19:52.037Z,21.22
2018-08-23T05:20:51.971Z,21.19
2018-08-23T05:21:51.918Z,21.19
2018-08-23T05:22:51.854Z,21.25
2018-08-23T05:23:51.793Z,21.20
2018-08-23T05:24:51.738Z,21.32
2018-08-23T05:25:51.678Z,21.29
2018-08-23T05:26:51.619Z,21.29
2018-08-23T05:27:51.562Z,21.30
2018-08-23T05:28:51.504Z,21.32
2018-08-23T05:29:51.475Z,21.38
2018-08-23T05:30:51.393Z,21.43
2018-08-23T05:31:51.329Z,21.50
2018-08-23T05:32:51.274Z,21.44
2018-08-23T05:33:51.212Z,21.51
2018-08-23T05:34:51.155Z,21.55
2018-08-23T05:35:51.095Z,21.55
2018-08-23T05:36:51.038Z,21.59
2018-08-23T05:37:50.980Z,21.63
2018-08-23T05:38:50.920Z,21.58
2018-08-23T05:39:50.864Z,21.58
2018-08-23T05:40:50.803Z,21.58
2018-08-23T05:41:50.754Z,21.67
2018-08-23T05:42:50.697Z,21.74
2018-08-23T05:43:50.637Z,21.71
2018-08-23T05:44:50.573Z,21.81
2018-08-23T05:45:50.516Z,21.84
2018-08-23T05:46:50.457Z,21.82
2018-08-23T05:47:50.397Z,21.84
2018-08-23T05:48:50.338Z,21.98
2018-08-23T05:49:50.287Z,21.91
2018-08-23T05:50:50.222Z,21.93
2018-08-23T05:51:50.168Z,22.12
2018-08-23T05:52:50.110Z,22.06
2018-08-23T05:53:50.053Z,22.09
2018-08-23T05:54:49.993Z,22.04
2018-08-23T05:55:49.961Z,22.18
2018-08-23T05:56:49.877Z,22.15
2018-08-23T05:57:49.818Z,22.25
2018-08-23T05:58:49.805Z,22.30
2018-08-23T05:59:49.701Z,22.30
2018-08-23T06:00:49.683Z,22.37
2018-08-23T06:01:49.597Z,22.36
2018-08-23T06:02:49.583Z,22.46
2018-08-23T06:03:49.478Z,22.46
2018-08-23T06:04:49.420Z,22.49
2018-08-23T06:05:49.360Z,22.55
2018-08-23T06:06:49.339Z,22.52
2018-08-23T06:07:49.237Z,22.56
2018-08-23T06:08:49.187Z,22.64
2018-08-23T06:09:49.159Z,22.71
2018-08-23T06:10:49.067Z,22.74
2018-08-23T06:11:49.052Z,22.74
2018-08-23T06:12:48.958Z,22.80
2018-08-23T06:13:48.921Z,22.78
2018-08-23T06:14:48.865Z,22.85
2018-08-23T06:15:48.789Z,22.86
2018-08-23T06:16:48.741Z,22.92
2018-08-23T06:17:48.669Z,22.86
2018-08-23T06:18:48.611Z,22.98
2018-08-23T06:19:48.569Z,22.99
2018-08-23T06:20:48.489Z,23.08
2018-08-23T06:21:48.434Z,23.04
2018-08-23T06:22:48.377Z,23.07
2018-08-23T06:23:48.318Z,23.14
2018-08-23T06:24:48.261Z,23.18
2018-08-23T06:25:48.205Z,23.31
2018-08-23T06:26:48.143Z,23.29
2018-08-23T06:27:48.092Z,23.33
2018-08-23T06:28:48.030Z,23.25
2018-08-23T06:29:47.973Z,23.34
2018-08-23T06:30:47.921Z,23.39
2018-08-23T06:31:47.858Z,23.34
2018-08-23T06:32:47.885Z,23.46
2018-08-23T06:33:47.861Z,23.46
2018-08-23T06:34:47.684Z,23.52
2018-08-23T06:35:47.635Z,23.55
2018-08-23T06:36:47.571Z,23.67
2018-08-23T06:37:47.513Z,23.69
2018-08-23T06:38:47.486Z,23.67
2018-08-23T06:39:47.403Z,23.78
2018-08-23T06:40:47.343Z,23.82
2018-08-23T06:41:47.304Z,23.88
2018-08-23T06:42:47.261Z,23.94
2018-08-23T06:43:47.174Z,23.91
2018-08-23T06:44:47.115Z,23.96
2018-08-23T06:45:47.060Z,24.03
2018-08-23T06:46:47.002Z,24.07
2018-08-23T06:47:46.943Z,24.15
2018-08-23T06:48:46.930Z,24.25
2018-08-23T06:49:46.834Z,24.33
2018-08-23T06:50:46.778Z,24.34
2018-08-23T06:51:46.717Z,24.37
2018-08-23T06:52:46.657Z,24.45
2018-08-23T06:53:46.606Z,24.53
2018-08-23T06:54:46.550Z,24.59
2018-08-23T06:55:46.488Z,24.55
2018-08-23T06:56:46.435Z,24.60
2018-08-23T06:57:46.384Z,24.52
2018-08-23T06:58:46.334Z,24.65
2018-08-23T06:59:46.278Z,24.63
2018-08-23T07:00:46.201Z,24.59
2018-08-23T07:01:46.150Z,24.74
2018-08-23T07:02:46.091Z,24.71
2018-08-23T07:03:46.038Z,24.70
2018-08-23T07:04:45.979Z,24.74
2018-08-23T07:05:45.926Z,24.79
2018-08-23T07:06:45.890Z,24.75
2018-08-23T07:07:45.810Z,24.82
2018-08-23T07:08:45.750Z,24.82
2018-08-23T07:09:45.703Z,24.76
2018-08-23T07:10:45.654Z,24.86
2018-08-23T07:11:45.652Z,24.91
2018-08-23T07:12:45.559Z,24.89
2018-08-23T07:13:45.470Z,24.89
2018-08-23T07:14:45.417Z,24.85
2018-08-23T07:15:45.357Z,24.81
2018-08-23T07:16:45.299Z,24.81
2018-08-23T07:17:45.427Z,24.91
2018-08-23T07:18:45.197Z,24.90
2018-08-23T07:19:45.140Z,24.89
2018-08-23T07:20:45.077Z,24.85
2018-08-23T07:21:45.018Z,25.03
2018-08-23T07:22:44.964Z,24.97
2018-08-23T07:23:44.906Z,25.01
2018-08-23T07:24:44.846Z,25.08
2018-08-23T07:25:44.791Z,25.12
2018-08-23T07:26:44.777Z,25.12
2018-08-23T07:27:44.681Z,25.11
2018-08-23T07:28:44.622Z,25.21
2018-08-23T07:29:44.647Z,25.16
2018-08-23T07:30:44.512Z,25.19
2018-08-23T07:31:44.460Z,25.14
2018-08-23T07:32:44.399Z,25.19
2018-08-23T07:33:44.342Z,25.21
2018-08-23T07:34:44.284Z,25.27
2018-08-23T07:35:44.229Z,25.27
2018-08-23T07:36:44.170Z,25.38
2018-08-23T07:37:44.126Z,25.48
2018-08-23T07:38:44.060Z,25.52
2018-08-23T07:39:44.005Z,25.61
2018-08-23T07:40:43.949Z,25.68
2018-08-23T07:41:43.896Z,25.73
2018-08-23T07:42:43.834Z,25.68
2018-08-23T07:43:43.780Z,25.63
2018-08-23T07:44:43.724Z,25.63
2018-08-23T07:45:43.666Z,25.70
2018-08-23T07:46:43.610Z,25.70
2018-08-23T07:47:43.553Z,25.71
2018-08-23T07:48:43.536Z,25.93
2018-08-23T07:49:43.502Z,26.00
2018-08-23T07:50:43.384Z,26.05
2018-08-23T07:51:43.344Z,26.08
2018-08-23T07:52:43.287Z,26.15
2018-08-23T07:53:43.220Z,26.12
2018-08-23T07:54:43.163Z,26.16
2018-08-23T07:55:43.103Z,26.24
2018-08-23T07:56:43.050Z,26.31
2018-08-23T07:57:43.008Z,26.36
2018-08-23T07:58:42.943Z,26.39
2018-08-23T07:59:42.886Z,26.31
2018-08-23T08:00:42.827Z,26.26
2018-08-23T08:01:42.783Z,26.28
2018-08-23T08:02:42.715Z,26.16
2018-08-23T08:03:42.660Z,26.19
2018-08-23T08:04:42.603Z,26.10
2018-08-23T08:05:42.545Z,26.05
2018-08-23T08:06:42.527Z,25.96
2018-08-23T08:07:42.446Z,25.96
2018-08-23T08:08:42.382Z,25.98
2018-08-23T08:09:42.324Z,26.00
2018-08-23T08:10:42.271Z,25.95
2018-08-23T08:11:42.215Z,25.78
2018-08-23T08:12:42.160Z,25.82
2018-08-23T08:13:42.103Z,25.86
2018-08-23T08:14:42.061Z,25.90
2018-08-23T08:15:41.992Z,25.86
2018-08-23T08:16:41.954Z,26.03
2018-08-23T08:17:41.883Z,26.00
2018-08-23T08:18:41.823Z,26.03
2018-08-23T08:19:41.769Z,26.12
2018-08-23T08:20:41.713Z,26.21
2018-08-23T08:21:41.672Z,26.36
2018-08-23T08:22:41.603Z,26.34
2018-08-23T08:23:41.544Z,26.48
2018-08-23T08:24:41.488Z,26.49
2018-08-23T08:25:41.432Z,26.51
2018-08-23T08:26:41.377Z,26.60
2018-08-23T08:27:41.325Z,26.60
2018-08-23T08:28:41.269Z,26.57
2018-08-23T08:29:41.210Z,26.57
2018-08-23T08:30:41.160Z,26.63
2018-08-23T08:31:41.101Z,26.56
2018-08-23T08:32:41.045Z,26.60
2018-08-23T08:33:40.993Z,26.52
2018-08-23T08:34:40.932Z,26.52
2018-08-23T08:35:40.876Z,26.56
2018-08-23T08:36:40.826Z,26.67
2018-08-23T08:37:40.766Z,26.75
2018-08-23T08:38:40.712Z,26.79
2018-08-23T08:39:40.656Z,26.85
2018-08-23T08:40:40.600Z,26.97
2018-08-23T08:41:40.541Z,27.03
2018-08-23T08:42:40.489Z,27.10
2018-08-23T08:43:40.433Z,27.12
2018-08-23T08:44:40.380Z,27.16
2018-08-23T08:45:40.322Z,27.07
2018-08-23T08:46:40.263Z,27.12
2018-08-23T08:47:40.211Z,27.22
2018-08-23T08:48:40.154Z,27.22
2018-08-23T08:49:40.101Z,27.17
2018-08-23T08:50:40.048Z,27.10
2018-08-23T08:51:39.993Z,26.95
2018-08-23T08:52:39.942Z,26.93
2018-08-23T08:53:39.882Z,26.93
2018-08-23T08:54:39.823Z,26.97
2018-08-23T08:55:39.775Z,27.03
2018-08-23T08:56:39.717Z,26.88
2018-08-23T08:57:39.677Z,26.78
2018-08-23T08:58:39.600Z,26.80
2018-08-23T08:59:39.548Z,26.61
2018-08-23T09:00:39.490Z,26.65
2018-08-23T09:01:39.437Z,26.53
2018-08-23T09:02:39.381Z,26.53
2018-08-23T09:03:39.331Z,26.53
2018-08-23T09:04:39.271Z,26.56
2018-08-23T09:05:39.213Z,26.53
2018-08-23T09:06:39.160Z,26.61
2018-08-23T09:07:39.104Z,26.70
2018-08-23T09:08:39.048Z,26.82
2018-08-23T09:09:39.006Z,26.90
2018-08-23T09:10:38.939Z,26.94
2018-08-23T09:11:38.886Z,26.95
2018-08-23T09:12:38.826Z,27.05
2018-08-23T09:13:38.775Z,26.98
2018-08-23T09:14:38.724Z,27.16
2018-08-23T09:15:38.664Z,27.22
2018-08-23T09:16:38.606Z,27.35
2018-08-23T09:17:38.552Z,27.47
2018-08-23T09:18:38.553Z,27.49
2018-08-23T09:19:38.443Z,27.58
2018-08-23T09:20:38.504Z,27.49
2018-08-23T09:21:38.333Z,27.34
2018-08-23T09:22:38.280Z,27.12
2018-08-23T09:23:38.228Z,27.03
2018-08-23T09:24:38.169Z,27.00
2018-08-23T09:25:38.111Z,26.98
2018-08-23T09:26:38.057Z,26.93
2018-08-23T09:27:38.003Z,26.95
2018-08-23T09:28:37.947Z,27.00
2018-08-23T09:29:37.893Z,26.95
2018-08-23T09:30:37.837Z,27.10
2018-08-23T09:31:37.782Z,27.05
2018-08-23T09:32:37.726Z,27.07
2018-08-23T09:33:37.674Z,27.08
2018-08-23T09:34:37.612Z,27.15
2018-08-23T09:35:37.565Z,27.19
2018-08-23T09:36:37.505Z,27.19
2018-08-23T09:37:37.452Z,27.23
2018-08-23T09:38:37.397Z,27.31
2018-08-23T09:39:37.341Z,27.30
2018-08-23T09:40:37.287Z,27.26
2018-08-23T09:41:37.234Z,27.22
2018-08-23T09:42:37.180Z,27.23
2018-08-23T09:43:37.123Z,27.23
2018-08-23T09:44:37.065Z,27.38
2018-08-23T09:45:37.019Z,27.38
2018-08-23T09:46:36.961Z,27.52
2018-08-23T09:47:36.906Z,27.53
2018-08-23T09:48:36.846Z,27.58
2018-08-23T09:49:36.797Z,27.50
2018-08-23T09:50:36.761Z,27.54
2018-08-23T09:51:36.686Z,27.57
2018-08-23T09:52:36.630Z,27.50
2018-08-23T09:53:36.573Z,27.60
2018-08-23T09:54:36.518Z,27.69
2018-08-23T09:55:36.466Z,27.75
2018-08-23T09:56:36.492Z,27.82
2018-08-23T09:57:36.397Z,27.80
2018-08-23T09:58:36.303Z,27.88
2018-08-23T09:59:36.245Z,27.91
2018-08-23T10:00:36.192Z,27.88
2018-08-23T10:01:36.147Z,27.87
2018-08-23T10:02:36.080Z,28.07
2018-08-23T10:03:36.030Z,28.19
2018-08-23T10:04:36.016Z,28.07
2018-08-23T10:05:35.923Z,28.15
2018-08-23T10:06:35.861Z,28.00
2018-08-23T10:07:35.810Z,28.22
2018-08-23T10:08:35.768Z,28.16
2018-08-23T10:09:35.695Z,28.20
2018-08-23T10:10:35.649Z,28.28
2018-08-23T10:11:35.681Z,28.44
2018-08-23T10:12:35.539Z,28.57
2018-08-23T10:13:35.491Z,28.59
2018-08-23T10:14:35.428Z,28.68
2018-08-23T10:15:35.392Z,28.62
2018-08-23T10:16:35.319Z,28.64
2018-08-23T10:17:35.260Z,28.53
2018-08-23T10:18:35.214Z,28.56
2018-08-23T10:19:35.167Z,28.42
2018-08-23T10:20:35.106Z,28.44
2018-08-23T10:21:35.054Z,28.46
2018-08-23T10:22:35.000Z,28.47
2018-08-23T10:23:34.937Z,28.57
2018-08-23T10:24:34.882Z,28.43
2018-08-23T10:25:34.830Z,28.44
2018-08-23T10:26:34.795Z,28.32
2018-08-23T10:27:34.717Z,28.37
2018-08-23T10:28:34.680Z,28.38
2018-08-23T10:29:34.609Z,28.35
2018-08-23T10:30:34.554Z,28.32
2018-08-23T10:31:34.505Z,28.42
2018-08-23T10:32:34.446Z,28.46
2018-08-23T10:33:34.393Z,28.54
2018-08-23T10:34:34.345Z,28.66
2018-08-23T10:35:34.282Z,28.64
2018-08-23T10:36:34.231Z,28.66
2018-08-23T10:37:34.172Z,28.52
2018-08-23T10:38:34.127Z,28.56
2018-08-23T10:39:34.076Z,28.47
2018-08-23T10:40:42.754Z,28.64
2018-08-23T10:42:36.409Z,28.94
2018-08-23T10:43:27.235Z,29.07
2018-08-23T10:44:27.202Z,29.17
2018-08-23T10:45:27.121Z,29.36
2018-08-23T10:46:27.066Z,29.52
2018-08-23T10:47:27.014Z,29.55
2018-08-23T10:48:26.992Z,29.63
2018-08-23T10:49:26.934Z,29.77
2018-08-23T10:50:26.850Z,29.63
2018-08-23T10:51:26.795Z,29.54
2018-08-23T10:52:26.749Z,29.49
2018-08-23T10:53:26.695Z,29.49
2018-08-23T10:54:26.635Z,29.46
2018-08-23T10:55:26.578Z,29.37
2018-08-23T10:56:26.526Z,29.40
2018-08-23T10:57:26.482Z,29.39
2018-08-23T10:58:26.414Z,29.59
2018-08-23T10:59:26.365Z,29.47
2018-08-23T11:00:26.313Z,29.52
2018-08-23T11:01:26.255Z,29.46
2018-08-23T11:02:26.218Z,29.34
2018-08-23T11:03:26.147Z,29.36
2018-08-23T11:04:26.096Z,29.36
2018-08-23T11:05:26.041Z,29.55
2018-08-23T11:06:25.989Z,29.71
2018-08-23T11:07:25.934Z,29.77
2018-08-23T11:08:25.879Z,29.92
2018-08-23T11:09:25.828Z,29.92
2018-08-23T11:10:25.770Z,29.81
2018-08-23T11:11:25.717Z,29.76
2018-08-23T11:12:25.663Z,29.59
2018-08-23T11:13:25.607Z,29.54
2018-08-23T11:14:25.575Z,29.36
2018-08-23T11:15:25.506Z,29.04
2018-08-23T11:16:25.446Z,28.75
2018-08-23T11:17:25.392Z,28.62
2018-08-23T11:18:25.336Z,28.53
2018-08-23T11:19:25.288Z,28.43
2018-08-23T11:20:25.231Z,28.35
2018-08-23T11:21:25.178Z,28.44
2018-08-23T11:22:25.121Z,28.42
2018-08-23T11:23:25.079Z,28.43
2018-08-23T11:24:25.026Z,28.34
2018-08-23T11:25:24.968Z,28.10
2018-08-23T11:26:24.914Z,28.12
2018-08-23T11:27:24.847Z,28.17
2018-08-23T11:28:24.794Z,28.27
2018-08-23T11:29:24.808Z,28.28
2018-08-23T11:30:24.691Z,28.30
2018-08-23T11:31:24.640Z,28.17
2018-08-23T11:32:24.577Z,28.31
2018-08-23T11:33:24.528Z,28.30
2018-08-23T11:34:24.475Z,28.24
2018-08-23T11:35:24.417Z,28.20
2018-08-23T11:36:24.383Z,28.05
2018-08-23T11:37:24.317Z,27.97
2018-08-23T11:38:24.281Z,28.00
2018-08-23T11:39:24.201Z,27.97
2018-08-23T11:40:24.147Z,27.87
2018-08-23T11:41:24.101Z,27.72
2018-08-23T11:42:24.036Z,27.80
2018-08-23T11:43:24.001Z,27.80
2018-08-23T11:44:23.928Z,27.80
2018-08-23T11:45:23.872Z,27.83
2018-08-23T11:46:23.840Z,27.79
2018-08-23T11:47:23.772Z,27.78
2018-08-23T11:48:23.710Z,27.76
2018-08-23T11:49:23.657Z,27.72
2018-08-23T11:50:23.601Z,27.70
2018-08-23T11:51:23.547Z,27.80
2018-08-23T11:52:23.494Z,27.64
2018-08-23T11:53:23.622Z,27.68
2018-08-23T11:54:23.404Z,27.52
2018-08-23T11:55:23.333Z,27.52
2018-08-23T11:56:23.278Z,27.52
2018-08-23T11:57:23.225Z,27.53
2018-08-23T11:58:23.167Z,27.68
2018-08-23T11:59:23.107Z,27.68
2018-08-23T12:00:23.078Z,27.58
2018-08-23T12:01:23.009Z,27.40
2018-08-23T12:02:22.960Z,27.27
2018-08-23T12:03:22.900Z,27.30
2018-08-23T12:04:22.837Z,27.31
2018-08-23T12:05:22.790Z,27.30
2018-08-23T12:06:22.811Z,27.20
2018-08-23T12:07:22.674Z,27.19
2018-08-23T12:08:22.614Z,27.17
2018-08-23T12:09:22.560Z,27.34
2018-08-23T12:10:22.506Z,27.30
2018-08-23T12:11:22.461Z,27.30
2018-08-23T12:12:22.402Z,27.32
2018-08-23T12:13:22.344Z,27.32
2018-08-23T12:14:22.292Z,27.37
2018-08-23T12:15:22.237Z,27.38
2018-08-23T12:16:22.183Z,27.42
2018-08-23T12:17:22.130Z,27.32
2018-08-23T12:18:22.064Z,27.41
2018-08-23T12:19:22.013Z,27.44
2018-08-23T12:20:21.958Z,27.42
2018-08-23T12:21:21.903Z,27.34
2018-08-23T12:22:21.856Z,27.34
2018-08-23T12:23:21.787Z,27.30
2018-08-23T12:24:21.739Z,27.19
2018-08-23T12:25:21.681Z,27.26
2018-08-23T12:26:21.740Z,27.26
2018-08-23T12:27:21.595Z,27.26
2018-08-23T12:28:21.519Z,27.32
2018-08-23T12:29:21.469Z,27.37
2018-08-23T12:30:21.407Z,27.35
2018-08-23T12:31:21.358Z,27.31
2018-08-23T12:32:21.305Z,27.49
2018-08-23T12:33:21.242Z,27.50
2018-08-23T12:34:21.192Z,27.52
2018-08-23T12:35:21.133Z,27.52
2018-08-23T12:36:21.081Z,27.49
2018-08-23T12:37:21.031Z,27.53
2018-08-23T12:38:20.967Z,27.64
2018-08-23T12:39:20.940Z,27.63
2018-08-23T12:40:20.904Z,27.66
2018-08-23T12:41:20.815Z,27.83
2018-08-23T12:42:20.745Z,27.73
2018-08-23T12:43:20.708Z,27.72
2018-08-23T12:44:20.643Z,27.66
2018-08-23T12:45:20.585Z,27.61
2018-08-23T12:46:20.590Z,27.72
2018-08-23T12:47:20.471Z,27.78
2018-08-23T12:48:20.418Z,27.78
2018-08-23T12:49:20.392Z,27.88
2018-08-23T12:50:20.310Z,27.88
2018-08-23T12:51:20.262Z,27.83
2018-08-23T12:52:20.196Z,27.83